Time;durP1;ratioP1;P1;durP2;ratioP2;P2;SDS_P1;SDS_P2;PMS_P1;PMS_P2;Temp;Humidity;BMP_temperature;BMP_pressure;BME280_temperature;BME280_humidity;BME280_pressure;Samples;Min_cycle;Max_cycle;Signal;HPM_P1;HPM_P2
2024/04/19 00:01:40;;;;;;;4.05;3.50;;;3.30;99.90;;;;;;469536;252;27427;-71
2024/04/19 00:03:41;;;;;;;4.00;3.30;;;3.30;99.90;;;;;;469524;252;27521;-71
2024/04/19 00:05:43;;;;;;;3.95;3.50;;;3.30;99.90;;;;;;469517;252;27490;-70
2024/04/19 00:07:44;;;;;;;5.70;3.33;;;3.30;99.90;;;;;;469504;252;27455;-71
2024/04/19 00:09:45;;;;;;;3.40;3.08;;;3.40;99.90;;;;;;469515;252;27520;-72
2024/04/19 00:11:46;;;;;;;4.32;3.28;;;3.50;99.90;;;;;;469534;252;27431;-70
2024/04/19 00:13:48;;;;;;;4.00;3.70;;;3.50;99.90;;;;;;469484;252;27891;-72
2024/04/19 00:15:49;;;;;;;3.70;3.40;;;3.50;99.90;;;;;;469455;252;27883;-71
2024/04/19 00:17:50;;;;;;;3.40;3.10;;;3.50;99.90;;;;;;469415;252;28034;-71
2024/04/19 00:19:51;;;;;;;5.28;4.00;;;3.50;99.90;;;;;;469491;252;27969;-72
2024/04/19 00:21:53;;;;;;;3.70;3.40;;;3.40;99.90;;;;;;469513;252;27490;-71
2024/04/19 00:23:54;;;;;;;3.60;3.33;;;3.50;99.90;;;;;;469530;252;27451;-71
2024/04/19 00:25:55;;;;;;;3.58;3.28;;;3.50;99.90;;;;;;469493;252;27522;-70
2024/04/19 00:27:56;;;;;;;3.60;3.30;;;3.70;99.90;;;;;;469511;252;27451;-71
2024/04/19 00:29:58;;;;;;;5.68;3.40;;;3.60;99.90;;;;;;469532;252;27490;-72
2024/04/19 00:31:59;;;;;;;5.15;4.05;;;3.60;99.90;;;;;;469517;252;27498;-71
2024/04/19 00:34:00;;;;;;;4.65;3.65;;;3.60;99.90;;;;;;469567;252;27462;-71
2024/04/19 00:36:01;;;;;;;4.87;4.10;;;3.60;99.90;;;;;;469564;252;27450;-71
2024/04/19 00:38:03;;;;;;;4.22;3.70;;;3.60;99.90;;;;;;469546;252;27536;-71
2024/04/19 00:40:04;;;;;;;5.93;3.65;;;3.60;99.90;;;;;;469583;252;27454;-71
2024/04/19 00:42:05;;;;;;;3.60;3.30;;;3.60;99.90;;;;;;469583;252;27971;-71
2024/04/19 00:44:06;;;;;;;4.53;3.15;;;3.60;99.90;;;;;;469544;252;27978;-71
2024/04/19 00:46:08;;;;;;;4.62;3.30;;;3.60;99.90;;;;;;469533;252;28010;-72
2024/04/19 00:48:09;;;;;;;3.60;3.30;;;3.60;99.90;;;;;;469494;252;27412;-71
2024/04/19 00:50:10;;;;;;;7.12;3.50;;;3.70;99.90;;;;;;469520;252;27526;-71
2024/04/19 00:52:11;;;;;;;4.25;3.85;;;3.70;99.90;;;;;;469515;252;27479;-71
2024/04/19 00:54:13;;;;;;;4.62;3.72;;;3.60;99.90;;;;;;469508;252;27463;-71
2024/04/19 00:56:14;;;;;;;4.18;3.80;;;3.60;99.90;;;;;;469528;252;27455;-72
2024/04/19 00:58:15;;;;;;;3.47;3.22;;;3.60;99.90;;;;;;469535;252;27514;-71
2024/04/19 01:00:16;;;;;;;3.58;3.28;;;3.60;99.90;;;;;;469527;252;27515;-70
2024/04/19 01:02:18;;;;;;;5.78;3.78;;;3.60;99.90;;;;;;469472;253;27422;-70
2024/04/19 01:04:20;;;;;;;4.10;3.75;;;3.50;99.90;;;;;;469546;252;27502;-71
2024/04/19 01:06:20;;;;;;;4.37;3.75;;;3.60;99.90;;;;;;469488;252;27534;-71
2024/04/19 01:08:21;;;;;;;3.70;3.40;;;4.10;99.90;;;;;;469530;252;28025;-71
2024/04/19 01:10:23;;;;;;;3.90;3.50;;;3.60;99.90;;;;;;469503;252;28005;-71
2024/04/19 01:12:24;;;;;;;6.25;4.15;;;3.70;99.90;;;;;;469499;252;28028;-71
2024/04/19 01:14:25;;;;;;;4.37;3.97;;;3.70;99.90;;;;;;469538;252;27895;-71
2024/04/19 01:16:26;;;;;;;7.20;4.53;;;3.70;99.90;;;;;;469533;252;27538;-71
2024/04/19 01:18:28;;;;;;;4.62;4.22;;;3.70;99.90;;;;;;469507;252;27411;-71
2024/04/19 01:20:29;;;;;;;7.05;4.60;;;3.80;99.90;;;;;;469516;252;27438;-71
2024/04/19 01:22:30;;;;;;;8.45;5.43;;;3.80;99.90;;;;;;469546;252;27555;-73
2024/04/19 01:24:31;;;;;;;5.32;4.00;;;3.90;99.90;;;;;;469521;252;27458;-71
2024/04/19 01:26:33;;;;;;;9.15;5.03;;;4.00;99.90;;;;;;469531;252;27463;-71
2024/04/19 01:28:34;;;;;;;7.22;4.70;;;4.00;99.90;;;;;;469495;252;27498;-71
2024/04/19 01:30:35;;;;;;;7.35;4.40;;;4.00;99.90;;;;;;469506;252;27453;-71
2024/04/19 01:32:37;;;;;;;6.00;4.72;;;3.90;99.90;;;;;;469517;252;27511;-71
2024/04/19 01:34:38;;;;;;;6.07;5.47;;;3.90;99.90;;;;;;469540;252;27858;-71
2024/04/19 01:36:39;;;;;;;6.35;4.70;;;4.00;99.90;;;;;;469519;252;28047;-71
2024/04/19 01:38:40;;;;;;;7.65;5.40;;;4.00;99.90;;;;;;469515;252;28640;-71
2024/04/19 01:40:41;;;;;;;6.85;5.20;;;4.10;99.90;;;;;;469537;252;27452;-71
2024/04/19 01:42:43;;;;;;;7.22;5.20;;;4.00;99.90;;;;;;469542;252;27463;-71
2024/04/19 01:44:44;;;;;;;7.28;5.35;;;4.00;99.90;;;;;;469524;252;27487;-71
2024/04/19 01:46:45;;;;;;;8.02;5.82;;;4.00;99.90;;;;;;469489;252;27523;-71
2024/04/19 01:48:46;;;;;;;5.30;4.55;;;4.00;99.90;;;;;;469533;252;27518;-72
2024/04/19 01:50:48;;;;;;;6.93;4.60;;;4.10;99.90;;;;;;469521;252;27516;-71
2024/04/19 01:52:49;;;;;;;6.20;4.32;;;4.10;99.90;;;;;;469472;252;27447;-71
2024/04/19 01:54:50;;;;;;;6.05;4.75;;;4.10;99.90;;;;;;469461;252;27424;-71
2024/04/19 01:56:56;;;;;;;5.40;4.80;;;4.10;99.90;;;;;;469480;252;27923;-71
2024/04/19 01:58:53;;;;;;;6.00;4.87;;;4.10;99.90;;;;;;469232;253;28033;-71
2024/04/19 02:00:54;;;;;;;8.77;6.10;;;4.10;99.90;;;;;;469545;252;27898;-71
2024/04/19 02:02:55;;;;;;;7.65;6.22;;;4.20;99.90;;;;;;469513;252;27442;-71
2024/04/19 02:04:58;;;;;;;6.62;5.65;;;4.20;99.90;;;;;;469508;252;27441;-71
2024/04/19 02:06:58;;;;;;;8.45;6.05;;;4.20;99.90;;;;;;469489;253;27439;-71
2024/04/19 02:08:59;;;;;;;7.68;5.60;;;4.30;99.90;;;;;;469558;252;27566;-72
2024/04/19 02:11:00;;;;;;;8.60;5.80;;;4.30;99.90;;;;;;469540;252;27419;-71
2024/04/19 02:13:01;;;;;;;9.43;6.30;;;4.20;99.90;;;;;;469522;252;27555;-71
2024/04/19 02:15:03;;;;;;;9.52;5.68;;;4.30;99.90;;;;;;469543;252;27450;-73
2024/04/19 02:17:04;;;;;;;8.50;6.30;;;4.30;99.90;;;;;;469546;252;27990;-71
2024/04/19 02:19:05;;;;;;;9.07;6.00;;;4.30;99.90;;;;;;469549;252;27970;-71
2024/04/19 02:21:07;;;;;;;9.18;6.05;;;4.40;99.90;;;;;;469542;252;27992;-71
2024/04/19 02:23:08;;;;;;;6.50;5.22;;;4.40;99.90;;;;;;469570;252;27455;-71
2024/04/19 02:25:09;;;;;;;10.32;6.97;;;4.30;99.90;;;;;;469583;252;27457;-72
2024/04/19 02:30:52;;;;;;;7.10;5.47;;;4.40;99.90;;;;;;469572;252;27423;-71
2024/04/19 02:31:31;;;;;;;6.00;5.30;;;4.40;99.90;;;;;;469520;253;27470;-72
2024/04/19 02:33:32;;;;;;;7.85;6.12;;;4.40;99.90;;;;;;469554;252;27538;-71
2024/04/19 02:35:34;;;;;;;8.38;5.47;;;4.30;99.90;;;;;;469543;252;27466;-71
2024/04/19 02:37:35;;;;;;;6.97;5.40;;;4.30;99.90;;;;;;469570;252;27428;-71
2024/04/19 02:39:36;;;;;;;8.43;6.45;;;4.30;99.90;;;;;;469544;252;27459;-71
2024/04/19 02:41:37;;;;;;;8.80;6.53;;;4.40;99.90;;;;;;469558;252;28030;-71
2024/04/19 02:43:39;;;;;;;6.80;5.30;;;4.40;99.90;;;;;;469545;252;27995;-71
2024/04/19 02:45:40;;;;;;;9.48;6.03;;;4.40;99.90;;;;;;469567;252;28020;-71
2024/04/19 02:47:41;;;;;;;8.88;5.25;;;4.40;99.90;;;;;;469563;252;27453;-71
2024/04/19 02:49:42;;;;;;;6.28;5.05;;;4.40;99.90;;;;;;469566;252;27585;-71
2024/04/19 02:51:45;;;;;;;8.20;5.80;;;4.50;99.90;;;;;;469562;252;27522;-72
2024/04/19 02:53:47;;;;;;;7.85;6.35;;;4.50;99.90;;;;;;469492;252;27433;-71
2024/04/19 02:55:46;;;;;;;6.90;5.80;;;4.40;99.90;;;;;;469465;252;27482;-71
2024/04/19 02:57:47;;;;;;;12.35;7.12;;;4.40;99.90;;;;;;469553;252;27471;-73
2024/04/19 02:59:49;;;;;;;9.32;6.07;;;4.40;99.90;;;;;;469546;252;27441;-71
2024/04/19 03:01:50;;;;;;;8.43;6.00;;;4.40;99.90;;;;;;469549;252;28063;-71
2024/04/19 03:03:51;;;;;;;8.85;6.20;;;4.40;99.90;;;;;;469545;252;27869;-71
2024/04/19 03:05:55;;;;;;;7.30;5.60;;;4.40;99.90;;;;;;469542;252;27577;-71
2024/04/19 03:07:57;;;;;;;6.93;5.70;;;4.40;99.90;;;;;;469551;252;27411;-71
2024/04/19 03:09:58;;;;;;;8.82;5.87;;;4.40;99.90;;;;;;469564;252;27527;-71
2024/04/19 03:11:59;;;;;;;11.82;6.62;;;4.50;99.90;;;;;;469562;252;27517;-71
2024/04/19 03:14:00;;;;;;;7.70;5.78;;;4.50;99.90;;;;;;469530;252;28034;-71
2024/04/19 03:16:02;;;;;;;7.53;5.87;;;4.50;99.90;;;;;;469573;252;28063;-72
2024/04/19 03:18:03;;;;;;;6.97;5.80;;;4.50;99.90;;;;;;469552;252;27450;-71
2024/04/19 03:20:04;;;;;;;6.10;5.10;;;4.50;99.90;;;;;;469475;252;27455;-72
2024/04/19 03:22:05;;;;;;;13.43;6.55;;;4.50;99.90;;;;;;469555;252;27415;-71
2024/04/19 03:24:07;;;;;;;10.43;6.37;;;4.50;99.90;;;;;;469517;252;27494;-71
2024/04/19 03:26:08;;;;;;;8.73;7.07;;;4.50;99.90;;;;;;469566;252;27471;-72
2024/04/19 03:28:09;;;;;;;8.10;5.80;;;4.50;99.90;;;;;;469565;252;27511;-71
2024/04/19 03:30:10;;;;;;;7.43;5.80;;;4.60;99.90;;;;;;469544;252;27937;-71
2024/04/19 03:32:12;;;;;;;11.38;7.05;;;4.50;99.90;;;;;;469519;252;28052;-71
2024/04/19 03:34:13;;;;;;;9.15;6.70;;;4.50;99.90;;;;;;469507;252;27555;-71
2024/04/19 03:36:14;;;;;;;6.97;5.43;;;4.50;99.90;;;;;;469541;252;27462;-72
2024/04/19 03:38:16;;;;;;;9.57;6.00;;;4.60;99.90;;;;;;469554;252;27497;-71
2024/04/19 03:40:17;;;;;;;7.50;5.97;;;4.50;99.90;;;;;;469559;252;27483;-71
2024/04/19 03:42:20;;;;;;;9.05;6.53;;;4.50;99.90;;;;;;469533;252;27452;-71
2024/04/19 03:46:38;;;;;;;9.43;6.62;;;4.60;99.90;;;;;;469584;253;28045;-72
2024/04/19 03:48:40;;;;;;;10.93;6.65;;;4.60;99.90;;;;;;469564;252;27423;-71
2024/04/19 03:50:43;;;;;;;10.40;7.10;;;4.60;99.90;;;;;;469558;252;27477;-72
2024/04/19 03:52:42;;;;;;;12.37;7.00;;;4.50;99.90;;;;;;469452;253;27454;-74
2024/04/19 03:54:43;;;;;;;8.75;6.70;;;4.50;99.90;;;;;;469571;252;27423;-72
2024/04/19 03:56:45;;;;;;;7.68;6.32;;;4.50;99.90;;;;;;469559;252;27455;-72
2024/04/19 03:58:47;;;;;;;10.90;6.60;;;4.50;99.90;;;;;;469564;252;28007;-72
2024/04/19 04:00:47;;;;;;;8.40;7.18;;;4.60;99.90;;;;;;469555;252;27886;-72
2024/04/19 04:02:49;;;;;;;11.70;7.55;;;4.60;99.90;;;;;;469548;252;27610;-72
2024/04/19 04:04:50;;;;;;;11.48;6.60;;;4.60;99.90;;;;;;469565;252;27419;-72
2024/04/19 04:06:51;;;;;;;9.20;8.05;;;4.60;99.90;;;;;;469565;252;27475;-72
2024/04/19 04:08:53;;;;;;;9.98;7.40;;;4.60;99.90;;;;;;469563;252;27450;-73
2024/04/19 04:10:54;;;;;;;10.50;6.90;;;4.50;99.90;;;;;;469532;252;27412;-72
2024/04/19 04:12:56;;;;;;;10.82;7.20;;;4.50;99.90;;;;;;469522;252;27438;-72
2024/04/19 04:14:56;;;;;;;9.25;7.68;;;4.50;99.90;;;;;;469506;252;27996;-71
2024/04/19 04:16:57;;;;;;;8.90;7.15;;;4.50;99.90;;;;;;469522;252;28029;-72
2024/04/19 04:18:59;;;;;;;10.65;7.75;;;4.50;99.90;;;;;;469586;252;27536;-73
2024/04/19 04:21:00;;;;;;;9.68;7.93;;;4.50;99.90;;;;;;469545;252;27424;-72
2024/04/19 04:23:01;;;;;;;12.68;8.80;;;4.50;99.90;;;;;;469497;253;27455;-73
2024/04/19 04:25:02;;;;;;;10.30;8.10;;;4.50;99.90;;;;;;469559;252;27451;-71
2024/04/19 04:27:04;;;;;;;12.73;8.48;;;4.50;99.90;;;;;;469527;252;27494;-72
2024/04/19 04:29:05;;;;;;;13.25;8.73;;;4.40;99.90;;;;;;469567;252;27544;-72
2024/04/19 04:31:08;;;;;;;10.70;9.15;;;4.40;99.90;;;;;;469551;252;27936;-72
2024/04/19 04:33:07;;;;;;;13.62;8.90;;;4.40;99.90;;;;;;469471;252;27918;-72
2024/04/19 04:35:09;;;;;;;9.43;7.87;;;4.40;99.90;;;;;;469326;252;27460;-72
2024/04/19 04:37:10;;;;;;;12.48;9.13;;;4.40;99.90;;;;;;469547;252;27543;-72
2024/04/19 04:39:11;;;;;;;12.15;8.50;;;4.40;99.90;;;;;;469560;252;27458;-73
2024/04/19 04:41:12;;;;;;;13.68;9.85;;;4.30;99.90;;;;;;469568;252;27474;-72
2024/04/19 04:43:16;;;;;;;17.42;9.82;;;4.40;99.90;;;;;;469510;252;27475;-72
2024/04/19 04:45:15;;;;;;;9.60;8.10;;;4.40;99.90;;;;;;469466;253;27467;-72
2024/04/19 04:47:16;;;;;;;13.75;9.63;;;4.40;99.90;;;;;;469567;252;27905;-72
2024/04/19 04:49:17;;;;;;;12.02;9.07;;;4.50;99.90;;;;;;469528;252;28006;-72
2024/04/19 04:51:19;;;;;;;11.38;9.18;;;4.40;99.90;;;;;;469541;252;27423;-72
2024/04/19 04:53:20;;;;;;;14.75;9.32;;;4.50;99.90;;;;;;469537;252;27529;-72
2024/04/19 04:55:21;;;;;;;14.90;8.90;;;4.50;99.90;;;;;;469538;252;27462;-72
2024/04/19 04:57:22;;;;;;;11.12;9.10;;;4.50;99.90;;;;;;469527;252;27461;-72
2024/04/19 04:59:24;;;;;;;11.45;9.13;;;4.50;99.90;;;;;;469527;252;27562;-72
2024/04/19 05:01:25;;;;;;;14.87;9.80;;;4.50;99.90;;;;;;469528;252;27526;-72
2024/04/19 05:03:26;;;;;;;14.43;9.88;;;4.60;99.90;;;;;;469538;252;27874;-72
2024/04/19 05:05:27;;;;;;;12.55;9.68;;;4.60;99.90;;;;;;469531;252;27595;-72
2024/04/19 05:07:29;;;;;;;16.17;9.65;;;4.60;99.90;;;;;;469536;252;27486;-71
2024/04/19 05:09:30;;;;;;;12.50;10.18;;;4.60;99.90;;;;;;469500;252;27443;-72
2024/04/19 05:11:31;;;;;;;13.20;10.20;;;4.60;99.90;;;;;;469538;252;27578;-73
2024/04/19 05:13:33;;;;;;;16.10;10.52;;;4.60;99.90;;;;;;469564;252;27807;-72
2024/04/19 05:15:34;;;;;;;14.10;9.60;;;4.60;99.90;;;;;;469538;252;28025;-72
2024/04/19 05:17:38;;;;;;;10.85;8.93;;;4.60;99.90;;;;;;469537;252;27901;-72
2024/04/19 05:19:39;;;;;;;15.15;10.75;;;4.70;99.90;;;;;;469530;252;27455;-73
2024/04/19 05:21:40;;;;;;;16.65;9.80;;;4.60;99.90;;;;;;469525;252;27879;-72
2024/04/19 05:23:43;;;;;;;17.35;10.93;;;4.60;99.90;;;;;;469534;252;27948;-72
2024/04/19 05:25:43;;;;;;;12.80;9.27;;;4.60;99.90;;;;;;469461;253;27460;-72
2024/04/19 05:27:44;;;;;;;13.02;9.80;;;4.60;99.90;;;;;;469532;252;27490;-72
2024/04/19 05:29:46;;;;;;;9.40;8.05;;;4.60;99.90;;;;;;469547;252;27988;-73
2024/04/19 05:31:47;;;;;;;10.80;9.13;;;4.50;99.90;;;;;;469547;252;27569;-72
2024/04/19 05:33:48;;;;;;;11.82;9.43;;;4.60;99.90;;;;;;469535;252;27467;-72
2024/04/19 05:35:49;;;;;;;10.98;8.65;;;4.50;99.90;;;;;;469529;252;27955;-72
2024/04/19 05:37:51;;;;;;;9.50;8.50;;;4.50;99.90;;;;;;469541;252;27897;-72
2024/04/19 05:39:52;;;;;;;10.30;8.15;;;4.50;99.90;;;;;;469536;252;27544;-72
2024/04/19 05:41:53;;;;;;;17.33;9.05;;;4.50;99.90;;;;;;469518;252;27561;-72
2024/04/19 05:43:54;;;;;;;13.98;9.55;;;4.50;99.90;;;;;;469541;252;27463;-73
2024/04/19 05:45:56;;;;;;;10.60;8.45;;;4.50;99.90;;;;;;469532;252;27526;-74
2024/04/19 05:47:57;;;;;;;12.40;8.85;;;4.40;99.90;;;;;;469573;252;27482;-72
2024/04/19 05:49:58;;;;;;;13.43;8.73;;;4.40;99.90;;;;;;469555;252;28138;-73
2024/04/19 05:51:59;;;;;;;14.40;10.85;;;4.50;99.90;;;;;;469560;252;27894;-72
2024/04/19 05:54:01;;;;;;;13.13;9.82;;;4.50;99.90;;;;;;469525;252;27459;-72
2024/04/19 05:56:02;;;;;;;11.98;9.48;;;4.40;99.90;;;;;;469537;252;27514;-74
2024/04/19 05:58:03;;;;;;;11.35;9.80;;;4.50;99.90;;;;;;469565;252;27465;-72
2024/04/19 06:00:05;;;;;;;14.73;10.68;;;4.50;99.90;;;;;;469525;252;27498;-73
2024/04/19 06:02:06;;;;;;;11.50;9.05;;;4.60;99.90;;;;;;469549;252;27558;-72
2024/04/19 06:04:08;;;;;;;16.30;10.40;;;4.50;99.90;;;;;;469548;252;27987;-72
2024/04/19 06:06:08;;;;;;;13.65;10.60;;;4.50;99.90;;;;;;469494;252;27933;-74
2024/04/19 06:08:11;;;;;;;12.30;9.60;;;4.50;99.90;;;;;;469537;252;27490;-72
2024/04/19 06:10:11;;;;;;;12.98;10.13;;;4.50;99.90;;;;;;469474;253;27453;-72
2024/04/19 06:12:12;;;;;;;10.85;9.50;;;4.50;99.90;;;;;;469556;252;27518;-71
2024/04/19 06:14:13;;;;;;;15.15;10.13;;;4.50;99.90;;;;;;469553;252;27466;-71
2024/04/19 06:16:14;;;;;;;13.68;10.27;;;4.50;99.90;;;;;;469532;252;27483;-72
2024/04/19 06:18:16;;;;;;;13.18;10.15;;;4.60;99.90;;;;;;469551;252;27975;-73
2024/04/19 06:20:17;;;;;;;12.00;9.18;;;4.60;99.90;;;;;;469567;252;27558;-72
2024/04/19 06:22:18;;;;;;;11.18;9.48;;;4.50;99.90;;;;;;469540;252;27459;-73
2024/04/19 06:24:20;;;;;;;10.77;8.88;;;4.50;99.90;;;;;;469557;252;27415;-72
2024/04/19 06:26:21;;;;;;;12.25;8.88;;;4.50;99.90;;;;;;469544;252;27568;-71
2024/04/19 06:28:22;;;;;;;11.35;9.13;;;4.50;99.90;;;;;;469523;252;27523;-72
2024/04/19 06:30:23;;;;;;;11.63;9.05;;;4.60;99.90;;;;;;469522;252;28039;-72
2024/04/19 06:32:25;;;;;;;12.20;8.82;;;4.60;99.90;;;;;;469515;252;28013;-72
2024/04/19 06:34:26;;;;;;;9.20;8.00;;;4.60;99.90;;;;;;469520;252;27510;-72
2024/04/19 06:36:27;;;;;;;12.10;8.23;;;4.60;99.90;;;;;;469513;252;27475;-72
2024/04/19 06:38:28;;;;;;;13.27;8.80;;;4.60;99.90;;;;;;469566;252;27468;-72
2024/04/19 06:40:30;;;;;;;13.80;7.72;;;4.60;99.90;;;;;;469518;252;27490;-72
2024/04/19 06:42:31;;;;;;;8.18;6.80;;;4.50;99.90;;;;;;469542;252;27545;-72
2024/04/19 06:44:32;;;;;;;10.98;7.70;;;4.50;99.90;;;;;;469518;252;27850;-72
2024/04/19 06:46:33;;;;;;;8.45;6.82;;;4.60;99.90;;;;;;469466;252;27956;-71
2024/04/19 06:48:35;;;;;;;10.77;7.55;;;4.70;99.90;;;;;;469495;252;27455;-73
2024/04/19 06:50:36;;;;;;;13.55;7.10;;;4.70;99.90;;;;;;469521;252;27533;-72
2024/04/19 06:52:37;;;;;;;10.13;7.50;;;4.80;99.90;;;;;;469532;252;27553;-73
2024/04/19 06:54:38;;;;;;;7.68;6.37;;;4.70;99.90;;;;;;469529;252;27427;-72
2024/04/19 06:56:40;;;;;;;8.40;6.75;;;4.70;99.90;;;;;;469513;252;27458;-71
2024/04/19 06:58:43;;;;;;;12.13;6.65;;;4.80;99.90;;;;;;469546;252;27491;-73
2024/04/19 07:00:42;;;;;;;8.48;6.93;;;4.80;99.90;;;;;;469435;253;27962;-72
2024/04/19 07:02:43;;;;;;;9.60;6.68;;;4.90;99.90;;;;;;469563;252;27938;-73
2024/04/19 07:04:45;;;;;;;7.90;6.00;;;4.90;99.90;;;;;;469540;252;27443;-73
2024/04/19 07:06:46;;;;;;;8.55;6.40;;;4.80;99.90;;;;;;469572;252;27448;-72
2024/04/19 07:08:47;;;;;;;6.47;5.82;;;4.80;99.90;;;;;;469529;252;27451;-73
2024/04/19 07:10:50;;;;;;;6.75;5.75;;;4.80;99.90;;;;;;469563;252;27510;-72
2024/04/19 07:12:50;;;;;;;9.68;6.00;;;4.70;99.90;;;;;;469512;253;27530;-72
2024/04/19 07:14:51;;;;;;;10.55;6.47;;;4.70;99.90;;;;;;469539;252;28054;-73
2024/04/19 07:16:52;;;;;;;8.23;6.37;;;4.80;99.90;;;;;;469568;252;27960;-72
2024/04/19 07:18:53;;;;;;;7.32;6.50;;;4.80;99.90;;;;;;469552;252;27474;-72
2024/04/19 07:20:55;;;;;;;8.70;6.47;;;4.80;99.90;;;;;;469560;252;27417;-72
2024/04/19 07:22:56;;;;;;;8.82;6.15;;;4.90;99.90;;;;;;469519;252;27556;-72
2024/04/19 07:24:57;;;;;;;8.70;6.37;;;4.90;99.90;;;;;;469556;252;27560;-73
2024/04/19 07:26:58;;;;;;;6.82;5.70;;;4.90;99.90;;;;;;469551;252;27418;-72
2024/04/19 07:29:00;;;;;;;8.93;6.72;;;5.10;99.90;;;;;;469562;252;27455;-72
2024/04/19 07:31:01;;;;;;;9.68;6.43;;;5.10;99.90;;;;;;469561;252;28686;-72
2024/04/19 07:33:02;;;;;;;9.18;6.78;;;5.10;99.90;;;;;;469552;252;27961;-72
2024/04/19 07:35:04;;;;;;;17.52;6.60;;;5.10;99.90;;;;;;469566;252;27573;-72
2024/04/19 07:37:05;;;;;;;7.25;6.20;;;5.10;99.90;;;;;;469577;252;27423;-72
2024/04/19 07:39:06;;;;;;;12.18;7.65;;;5.10;99.90;;;;;;469567;252;27454;-72
2024/04/19 07:41:08;;;;;;;10.50;6.47;;;5.00;99.90;;;;;;469576;252;27529;-73
2024/04/19 07:43:09;;;;;;;8.23;6.78;;;5.00;99.90;;;;;;469540;253;27541;-72
2024/04/19 07:45:11;;;;;;;7.53;6.10;;;5.10;99.90;;;;;;469564;252;27938;-72
2024/04/19 07:47:11;;;;;;;7.32;6.53;;;5.00;99.90;;;;;;469519;253;27963;-71
2024/04/19 07:49:12;;;;;;;8.45;5.93;;;5.00;99.90;;;;;;469568;252;27451;-72
2024/04/19 07:51:14;;;;;;;6.90;5.82;;;5.10;99.90;;;;;;469600;252;27447;-73
2024/04/19 07:53:20;;;;;;;7.35;6.65;;;5.10;99.90;;;;;;469558;252;27423;-72
2024/04/19 07:55:16;;;;;;;8.38;6.47;;;5.10;99.90;;;;;;469261;253;27463;-72
2024/04/19 07:57:17;;;;;;;9.75;7.70;;;5.10;99.90;;;;;;469539;252;27500;-73
2024/04/19 07:59:19;;;;;;;7.55;5.87;;;5.10;99.90;;;;;;469569;252;27499;-72
2024/04/19 08:01:20;;;;;;;9.07;6.43;;;5.10;99.90;;;;;;469548;252;27946;-73
2024/04/19 08:03:21;;;;;;;12.90;7.30;;;5.20;99.90;;;;;;469585;252;28038;-72
2024/04/19 08:05:23;;;;;;;8.52;7.28;;;5.10;99.90;;;;;;469588;252;27534;-72
2024/04/19 08:07:26;;;;;;;7.90;6.80;;;5.10;99.90;;;;;;469529;252;27467;-71
2024/04/19 08:09:25;;;;;;;7.50;6.70;;;7.20;99.90;;;;;;469427;253;27421;-72
2024/04/19 08:11:27;;;;;;;9.57;7.78;;;5.10;99.90;;;;;;469513;252;27490;-72
2024/04/19 08:13:27;;;;;;;10.25;7.10;;;5.10;99.90;;;;;;469446;252;27416;-72
2024/04/19 08:15:29;;;;;;;8.40;6.97;;;5.20;99.90;;;;;;469404;252;28055;-73
2024/04/19 08:17:30;;;;;;;7.30;6.20;;;5.20;99.90;;;;;;469507;252;27992;-73
2024/04/19 08:19:31;;;;;;;10.77;7.15;;;5.20;99.90;;;;;;469501;252;27420;-72
2024/04/19 08:21:33;;;;;;;8.70;6.50;;;5.20;99.90;;;;;;469521;252;27455;-72
2024/04/19 08:23:34;;;;;;;8.88;6.65;;;5.20;99.90;;;;;;469476;252;27458;-72
2024/04/19 08:25:35;;;;;;;8.35;6.30;;;5.30;99.90;;;;;;469522;252;27461;-72
2024/04/19 08:27:36;;;;;;;9.43;7.05;;;5.30;99.90;;;;;;469526;252;27474;-72
2024/04/19 08:29:37;;;;;;;7.30;6.32;;;5.30;99.90;;;;;;469531;252;27881;-71
2024/04/19 08:31:42;;;;;;;7.47;5.85;;;5.30;99.90;;;;;;469539;252;28009;-73
2024/04/19 08:33:40;;;;;;;8.75;7.12;;;5.40;99.90;;;;;;469368;253;27709;-72
2024/04/19 08:35:41;;;;;;;10.52;7.68;;;5.40;99.90;;;;;;469544;252;27499;-72
2024/04/19 08:37:42;;;;;;;8.07;6.40;;;5.20;99.90;;;;;;469553;252;27526;-73
2024/04/19 08:39:44;;;;;;;8.57;7.00;;;5.30;99.90;;;;;;469553;252;27466;-71
2024/04/19 08:41:45;;;;;;;7.95;6.60;;;5.30;99.90;;;;;;469564;252;27459;-73
2024/04/19 08:43:46;;;;;;;7.65;6.40;;;5.20;99.90;;;;;;469571;252;28083;-73
2024/04/19 08:45:48;;;;;;;10.30;7.53;;;5.20;99.90;;;;;;469573;252;27981;-72
2024/04/19 08:47:49;;;;;;;9.98;7.12;;;5.20;99.90;;;;;;469539;252;27451;-72
2024/04/19 08:49:50;;;;;;;8.05;6.62;;;5.20;99.90;;;;;;469545;252;27511;-72
2024/04/19 08:51:51;;;;;;;7.95;6.40;;;5.20;99.90;;;;;;469526;252;27519;-72
2024/04/19 08:53:53;;;;;;;13.45;7.68;;;5.30;99.90;;;;;;469561;252;27562;-73
2024/04/19 08:55:54;;;;;;;10.07;7.72;;;5.40;99.90;;;;;;469537;252;27462;-71
2024/04/19 08:57:55;;;;;;;7.72;6.93;;;5.40;99.90;;;;;;469533;252;27962;-72
2024/04/19 08:59:56;;;;;;;11.40;6.22;;;5.30;99.90;;;;;;469537;252;28167;-72
2024/04/19 09:01:58;;;;;;;8.35;6.70;;;5.40;99.90;;;;;;469562;252;27419;-72
2024/04/19 09:03:59;;;;;;;8.93;6.00;;;5.30;99.90;;;;;;469576;252;27471;-72
2024/04/19 09:06:00;;;;;;;9.00;6.35;;;5.30;99.90;;;;;;469534;252;27499;-72
2024/04/19 09:08:01;;;;;;;8.88;7.25;;;5.30;99.90;;;;;;469517;252;27507;-72
2024/04/19 09:10:03;;;;;;;8.68;6.78;;;5.30;99.90;;;;;;469556;252;27804;-72
2024/04/19 09:12:06;;;;;;;8.15;6.50;;;5.30;99.90;;;;;;469547;252;27466;-71
2024/04/19 09:14:05;;;;;;;7.55;6.35;;;5.40;99.90;;;;;;469470;252;27942;-72
2024/04/19 09:16:06;;;;;;;6.28;5.68;;;5.40;99.90;;;;;;469536;252;27901;-72
2024/04/19 09:18:08;;;;;;;10.68;6.97;;;5.40;99.90;;;;;;469550;252;27430;-72
2024/04/19 09:20:09;;;;;;;6.70;5.37;;;5.30;99.90;;;;;;469546;252;27459;-72
2024/04/19 09:22:10;;;;;;;8.45;6.95;;;5.40;99.90;;;;;;469558;252;27483;-72
2024/04/19 09:24:11;;;;;;;6.53;5.45;;;5.40;99.90;;;;;;469540;252;27462;-72
2024/04/19 09:26:13;;;;;;;8.25;5.45;;;5.40;99.90;;;;;;469550;251;28093;-74
2024/04/19 09:28:15;;;;;;;5.57;5.07;;;5.50;99.90;;;;;;469572;252;27532;-72
2024/04/19 09:30:15;;;;;;;6.35;5.25;;;5.50;99.90;;;;;;469465;252;27463;-73
2024/04/19 09:32:16;;;;;;;7.93;5.25;;;5.50;99.90;;;;;;469555;252;27411;-73
2024/04/19 09:34:18;;;;;;;6.95;5.55;;;5.40;99.90;;;;;;469525;252;27466;-72
2024/04/19 09:36:19;;;;;;;5.37;4.87;;;5.40;99.90;;;;;;469554;252;27463;-74
2024/04/19 09:38:20;;;;;;;8.93;6.07;;;5.40;99.90;;;;;;469550;252;28026;-72
2024/04/19 09:40:22;;;;;;;7.75;5.50;;;5.40;99.90;;;;;;469539;252;28053;-72
2024/04/19 09:42:23;;;;;;;7.68;5.40;;;5.40;99.90;;;;;;469533;252;27410;-72
2024/04/19 09:44:24;;;;;;;7.53;5.62;;;5.40;99.90;;;;;;469526;252;27546;-72
2024/04/19 09:46:25;;;;;;;6.55;4.85;;;5.40;99.90;;;;;;469535;252;27466;-72
2024/04/19 09:48:27;;;;;;;8.85;6.15;;;5.40;99.90;;;;;;469547;252;27461;-71
2024/04/19 09:50:28;;;;;;;6.10;5.18;;;5.40;99.90;;;;;;469539;252;27534;-72
2024/04/19 09:52:29;;;;;;;6.15;5.55;;;5.40;99.90;;;;;;469495;252;28030;-73
2024/04/19 09:54:30;;;;;;;5.50;5.00;;;5.30;99.90;;;;;;469532;252;28046;-72
2024/04/19 09:56:32;;;;;;;5.80;5.12;;;5.40;99.90;;;;;;469532;252;27470;-72
2024/04/19 09:58:33;;;;;;;6.50;5.65;;;5.40;99.90;;;;;;469555;252;27435;-72
2024/04/19 10:00:34;;;;;;;7.82;5.80;;;5.40;99.90;;;;;;469551;252;27454;-73
2024/04/19 10:02:35;;;;;;;6.70;5.35;;;5.30;99.90;;;;;;469538;252;27485;-73
2024/04/19 10:04:37;;;;;;;5.85;4.95;;;5.40;99.90;;;;;;469531;252;27523;-72
2024/04/19 10:06:38;;;;;;;7.93;5.85;;;5.30;99.90;;;;;;469337;252;27959;-72
2024/04/19 10:08:39;;;;;;;6.62;5.60;;;5.40;99.90;;;;;;469532;251;28636;-71
2024/04/19 10:10:40;;;;;;;7.62;5.37;;;5.50;99.90;;;;;;469533;252;27419;-72
2024/04/19 10:12:42;;;;;;;10.73;5.80;;;5.50;99.90;;;;;;469528;252;27459;-73
2024/04/19 10:14:43;;;;;;;6.85;5.25;;;5.50;99.90;;;;;;469525;252;27518;-72
2024/04/19 10:16:44;;;;;;;6.72;5.28;;;5.50;99.90;;;;;;469538;252;27482;-72
2024/04/19 10:18:45;;;;;;;5.45;4.85;;;5.60;99.90;;;;;;469536;252;27563;-74
2024/04/19 10:20:47;;;;;;;8.30;4.93;;;5.60;99.90;;;;;;469541;252;28057;-72
2024/04/19 10:22:48;;;;;;;6.07;5.25;;;5.60;99.90;;;;;;469527;252;27455;-72
2024/04/19 10:24:49;;;;;;;6.32;5.47;;;5.60;99.90;;;;;;469528;252;27432;-72
2024/04/19 10:26:50;;;;;;;5.32;4.78;;;5.60;99.90;;;;;;469556;252;27423;-73
2024/04/19 10:28:52;;;;;;;6.87;5.32;;;5.50;99.90;;;;;;469537;252;27538;-73
2024/04/19 10:30:53;;;;;;;5.60;5.10;;;5.60;99.90;;;;;;469563;252;27428;-72
2024/04/19 10:32:54;;;;;;;6.10;5.30;;;5.50;99.90;;;;;;469528;252;28001;-73
2024/04/19 10:34:55;;;;;;;6.18;5.57;;;5.40;99.90;;;;;;469540;252;28004;-72
2024/04/19 10:36:57;;;;;;;5.65;4.90;;;5.40;99.90;;;;;;469561;252;27406;-72
2024/04/19 10:38:58;;;;;;;6.15;5.00;;;5.50;99.90;;;;;;469564;252;27463;-73
2024/04/19 10:41:00;;;;;;;5.50;4.90;;;5.40;99.90;;;;;;469597;252;27613;-72